Time;durP1;ratioP1;P1;durP2;ratioP2;P2;SDS_P1;SDS_P2;PMS_P1;PMS_P2;Temp;Humidity;BMP_temperature;BMP_pressure;BME280_temperature;BME280_humidity;BME280_pressure;Samples;Min_cycle;Max_cycle;Signal;HPM_P1;HPM_P2
2021/08/12 00:01:05;;;;;;;5.30;4.90;;;18.60;99.90;;;;;;5029581;28;20240;-70
2021/08/12 00:03:32;;;;;;;5.40;5.00;;;18.60;99.90;;;;;;5029754;28;20240;-70
2021/08/12 00:05:58;;;;;;;4.90;4.50;;;18.60;99.90;;;;;;5029927;28;20208;-70
2021/08/12 00:08:25;;;;;;;5.30;4.90;;;18.60;99.90;;;;;;5029481;28;20602;-70
2021/08/12 00:10:52;;;;;;;5.47;5.07;;;18.50;99.90;;;;;;5029704;28;20205;-71
2021/08/12 00:13:20;;;;;;;5.27;4.87;;;18.50;99.90;;;;;;5029577;28;20251;-70
2021/08/12 00:15:48;;;;;;;5.10;4.67;;;18.50;99.90;;;;;;5029302;28;20638;-70
2021/08/12 00:18:15;;;;;;;5.83;5.37;;;18.50;99.90;;;;;;5029132;28;20294;-71
2021/08/12 00:20:42;;;;;;;5.23;4.83;;;18.50;99.90;;;;;;5029521;28;20209;-70
2021/08/12 00:23:08;;;;;;;5.57;5.07;;;18.50;99.90;;;;;;5028989;28;20963;-70
2021/08/12 00:25:35;;;;;;;5.43;4.97;;;18.50;99.90;;;;;;5029168;28;20213;-70
2021/08/12 00:28:02;;;;;;;5.63;5.23;;;18.50;99.90;;;;;;5029169;28;20726;-70
2021/08/12 00:30:28;;;;;;;5.53;5.10;;;18.50;99.90;;;;;;5029054;28;20208;-70
2021/08/12 00:32:56;;;;;;;5.17;4.70;;;18.50;99.90;;;;;;5029190;28;20232;-70
2021/08/12 00:35:23;;;;;;;5.63;5.23;;;18.50;99.90;;;;;;5029150;28;20209;-71
2021/08/12 00:37:50;;;;;;;5.70;5.20;;;18.40;99.90;;;;;;5028883;28;20683;-71
2021/08/12 00:40:20;;;;;;;4.93;4.60;;;18.40;99.90;;;;;;5028983;28;20239;-70
2021/08/12 00:42:46;;;;;;;4.83;4.53;;;18.40;99.90;;;;;;5029285;28;20193;-71
2021/08/12 00:45:13;;;;;;;6.33;4.67;;;18.40;99.90;;;;;;5028822;28;20590;-71
2021/08/12 00:47:39;;;;;;;5.67;5.27;;;18.40;99.90;;;;;;5028785;28;20671;-71
2021/08/12 00:50:09;;;;;;;5.60;5.20;;;18.40;99.90;;;;;;5028860;28;20212;-71
2021/08/12 00:52:36;;;;;;;5.83;5.33;;;18.30;99.90;;;;;;5028729;28;20263;-71
2021/08/12 00:55:05;;;;;;;5.50;5.10;;;18.20;99.90;;;;;;5028494;28;20221;-71
2021/08/12 00:57:32;;;;;;;5.47;5.03;;;18.30;99.90;;;;;;5028824;28;20610;-71
2021/08/12 00:59:59;;;;;;;6.30;5.53;;;18.30;99.90;;;;;;5028405;28;20241;-71
2021/08/12 01:02:25;;;;;;;5.30;4.90;;;18.30;99.90;;;;;;5028572;28;20228;-70
2021/08/12 01:04:53;;;;;;;5.50;5.00;;;18.20;99.90;;;;;;5028291;28;20816;-71
2021/08/12 01:07:33;;;;;;;5.20;4.90;;;18.20;99.90;;;;;;5028519;28;20244;-71
2021/08/12 01:10:08;;;;;;;5.37;5.00;;;18.20;99.90;;;;;;5028486;28;20193;-71
2021/08/12 01:12:42;;;;;;;5.60;4.93;;;18.20;99.90;;;;;;5028217;28;20199;-71
2021/08/12 01:15:11;;;;;;;5.33;4.80;;;18.20;99.90;;;;;;5041679;28;20576;-71
2021/08/12 01:17:44;;;;;;;5.53;4.90;;;18.10;99.90;;;;;;5048072;28;20236;-71
2021/08/12 01:20:33;;;;;;;5.03;4.60;;;18.10;99.90;;;;;;5048225;28;20238;-71
2021/08/12 01:23:03;;;;;;;5.53;5.03;;;18.10;99.90;;;;;;5048662;28;20258;-71
2021/08/12 01:25:33;;;;;;;6.37;5.50;;;18.10;99.90;;;;;;5048225;28;20982;-71
2021/08/12 01:28:05;;;;;;;5.83;5.20;;;18.10;99.90;;;;;;5048330;28;20211;-71
2021/08/12 01:30:45;;;;;;;5.43;5.03;;;18.00;99.90;;;;;;5048367;28;20219;-71
2021/08/12 01:33:19;;;;;;;5.07;4.63;;;17.90;99.90;;;;;;5048131;28;20204;-71
2021/08/12 01:35:49;;;;;;;5.30;5.00;;;17.90;99.90;;;;;;5048417;28;20250;-71
2021/08/12 01:38:20;;;;;;;5.27;4.87;;;17.90;99.90;;;;;;5048038;28;20242;-70
2021/08/12 01:40:47;;;;;;;4.63;4.37;;;17.90;99.90;;;;;;5048225;28;20242;-70
2021/08/12 01:43:17;;;;;;;5.40;5.00;;;17.90;99.90;;;;;;5048319;28;20608;-70
2021/08/12 01:45:47;;;;;;;5.30;4.80;;;17.90;99.90;;;;;;5047866;28;20698;-71
2021/08/12 01:48:14;;;;;;;5.17;4.77;;;17.90;99.90;;;;;;5047922;28;20193;-70
2021/08/12 01:50:43;;;;;;;5.53;5.07;;;17.90;99.90;;;;;;5048231;28;20243;-70
2021/08/12 01:53:12;;;;;;;5.70;5.30;;;17.90;99.90;;;;;;5047709;28;20244;-70
2021/08/12 01:55:39;;;;;;;5.07;4.60;;;17.90;99.90;;;;;;5048276;28;20258;-70
2021/08/12 01:58:06;;;;;;;5.83;5.40;;;17.80;99.90;;;;;;5047895;28;20242;-70
2021/08/12 02:00:35;;;;;;;5.63;5.13;;;17.80;99.90;;;;;;5047986;28;20200;-71
2021/08/12 02:03:02;;;;;;;5.50;5.03;;;17.80;99.90;;;;;;5048053;28;20232;-70
2021/08/12 02:05:30;;;;;;;6.00;5.40;;;17.80;99.90;;;;;;5048022;28;20267;-70
2021/08/12 02:07:57;;;;;;;5.90;5.50;;;17.80;99.90;;;;;;5048063;28;20204;-70
2021/08/12 02:10:25;;;;;;;6.40;5.80;;;17.80;99.90;;;;;;5047849;28;20453;-70
2021/08/12 02:12:52;;;;;;;6.20;5.63;;;17.70;99.90;;;;;;5047860;28;20208;-70
2021/08/12 02:15:20;;;;;;;5.80;5.40;;;17.70;99.90;;;;;;5047163;28;20224;-71
2021/08/12 02:17:47;;;;;;;5.77;5.23;;;17.70;99.90;;;;;;5047753;28;20678;-70
2021/08/12 02:20:16;;;;;;;5.80;5.30;;;17.70;99.90;;;;;;5047651;28;20208;-71
2021/08/12 02:22:48;;;;;;;6.33;5.70;;;17.60;99.90;;;;;;5049312;28;20208;-71
2021/08/12 02:25:19;;;;;;;5.70;5.20;;;17.60;99.90;;;;;;5051421;28;20223;-70
2021/08/12 02:27:49;;;;;;;5.40;5.10;;;17.60;99.90;;;;;;5051261;28;20662;-71
2021/08/12 02:30:16;;;;;;;5.47;5.17;;;17.60;99.90;;;;;;5050853;28;20735;-71
2021/08/12 02:32:45;;;;;;;5.50;5.10;;;17.60;99.90;;;;;;5051459;28;20205;-70
2021/08/12 02:35:12;;;;;;;6.40;5.70;;;17.60;99.90;;;;;;5051132;28;20226;-71
2021/08/12 02:37:40;;;;;;;5.83;5.37;;;17.60;99.90;;;;;;5051393;28;20610;-71
2021/08/12 02:40:08;;;;;;;5.80;5.30;;;17.60;99.90;;;;;;5051028;28;20678;-70
2021/08/12 02:42:37;;;;;;;5.90;5.30;;;17.60;99.90;;;;;;5050954;28;20567;-71
2021/08/12 02:45:06;;;;;;;7.83;5.33;;;17.50;99.90;;;;;;5051075;28;20239;-70
2021/08/12 02:47:34;;;;;;;5.97;5.57;;;17.50;99.90;;;;;;5050699;28;20654;-70
2021/08/12 02:50:04;;;;;;;6.63;5.90;;;17.50;99.90;;;;;;5050964;28;20238;-70
2021/08/12 02:52:33;;;;;;;6.37;5.87;;;17.50;99.90;;;;;;5050837;28;20215;-70
2021/08/12 02:55:02;;;;;;;6.13;5.67;;;17.40;99.90;;;;;;5051004;28;20223;-70
2021/08/12 02:57:29;;;;;;;6.37;5.80;;;17.50;99.90;;;;;;5050594;28;20740;-70
2021/08/12 02:59:56;;;;;;;5.83;5.20;;;17.50;99.90;;;;;;5050378;28;20267;-70
2021/08/12 03:02:25;;;;;;;5.63;5.23;;;17.40;99.90;;;;;;5050809;28;20262;-70
2021/08/12 03:04:52;;;;;;;6.00;4.83;;;17.40;99.90;;;;;;5050757;28;20223;-71
2021/08/12 03:07:20;;;;;;;5.13;4.83;;;17.30;99.90;;;;;;5050818;28;20281;-71
2021/08/12 03:09:48;;;;;;;5.60;4.63;;;17.30;99.90;;;;;;5050674;28;20262;-70
2021/08/12 03:12:16;;;;;;;5.60;5.20;;;17.30;99.90;;;;;;5050369;28;20201;-70
2021/08/12 03:14:43;;;;;;;6.37;5.70;;;17.30;99.90;;;;;;5050215;28;20638;-70
2021/08/12 03:17:11;;;;;;;6.17;5.63;;;17.30;99.90;;;;;;5050436;28;20293;-70
2021/08/12 03:19:39;;;;;;;5.73;5.17;;;17.30;99.90;;;;;;5050418;28;20231;-70
2021/08/12 03:22:08;;;;;;;5.97;5.57;;;17.30;99.90;;;;;;5050599;28;20208;-70
2021/08/12 03:24:36;;;;;;;6.27;5.77;;;17.30;99.90;;;;;;5050311;28;20255;-70
2021/08/12 03:27:04;;;;;;;6.37;5.87;;;17.30;99.90;;;;;;5050536;28;20628;-70
2021/08/12 03:29:31;;;;;;;5.90;5.40;;;17.20;99.90;;;;;;5049921;28;20208;-70
2021/08/12 03:31:58;;;;;;;6.13;5.47;;;17.20;99.90;;;;;;5050369;28;20212;-70
2021/08/12 03:34:24;;;;;;;6.07;5.67;;;17.20;99.90;;;;;;5049254;28;20231;-70
2021/08/12 03:36:52;;;;;;;5.67;5.33;;;17.20;99.90;;;;;;5050223;28;20232;-70
2021/08/12 03:39:19;;;;;;;6.07;5.47;;;17.20;99.90;;;;;;5050128;28;20212;-71
2021/08/12 03:41:45;;;;;;;6.50;5.90;;;17.20;99.90;;;;;;5050161;28;20204;-71
2021/08/12 03:44:12;;;;;;;5.90;5.60;;;17.10;99.90;;;;;;5050125;28;20681;-70
2021/08/12 03:46:38;;;;;;;6.20;5.53;;;17.10;99.90;;;;;;5050009;28;20212;-70
2021/08/12 03:49:06;;;;;;;5.97;5.47;;;17.10;99.90;;;;;;5049916;28;20211;-70
2021/08/12 03:51:32;;;;;;;6.50;6.00;;;17.10;99.90;;;;;;5049795;28;20212;-70
2021/08/12 03:54:00;;;;;;;6.40;5.80;;;17.00;99.90;;;;;;5049373;28;20822;-70
2021/08/12 03:56:27;;;;;;;6.43;5.80;;;17.10;99.90;;;;;;5049759;28;20212;-70
2021/08/12 03:58:54;;;;;;;6.37;5.87;;;17.10;99.90;;;;;;5049489;28;20321;-70
2021/08/12 04:01:20;;;;;;;6.40;5.90;;;17.10;99.90;;;;;;5049498;28;20204;-70
2021/08/12 04:03:47;;;;;;;6.63;6.13;;;17.10;99.90;;;;;;5049740;28;20286;-70
2021/08/12 04:06:14;;;;;;;6.60;5.97;;;17.10;99.90;;;;;;5049647;28;20235;-70
2021/08/12 04:08:41;;;;;;;6.93;6.37;;;17.00;99.90;;;;;;5049577;28;20611;-71
2021/08/12 04:11:09;;;;;;;5.83;5.43;;;17.00;99.90;;;;;;5049456;28;20671;-70
2021/08/12 04:13:35;;;;;;;6.03;5.63;;;17.00;99.90;;;;;;5049455;28;20229;-70
2021/08/12 04:16:02;;;;;;;5.97;5.47;;;17.00;99.90;;;;;;5049237;28;20235;-70
2021/08/12 04:18:29;;;;;;;7.00;5.70;;;17.00;99.90;;;;;;5049184;28;20286;-70
2021/08/12 04:20:55;;;;;;;6.03;5.57;;;17.00;99.90;;;;;;5049381;28;20261;-70
2021/08/12 04:23:22;;;;;;;6.33;5.67;;;17.00;99.90;;;;;;5049266;28;20289;-70
2021/08/12 04:25:50;;;;;;;6.43;5.60;;;17.00;99.90;;;;;;5048947;28;20710;-71
2021/08/12 04:28:18;;;;;;;5.40;5.10;;;17.00;99.90;;;;;;5049053;28;20200;-71
2021/08/12 04:30:45;;;;;;;6.33;5.80;;;17.00;99.90;;;;;;5049311;28;20200;-70
2021/08/12 04:33:11;;;;;;;6.97;5.93;;;17.00;99.90;;;;;;5049149;28;20216;-70
2021/08/12 04:35:38;;;;;;;6.40;5.90;;;17.00;99.90;;;;;;5049107;28;20212;-70
2021/08/12 04:38:05;;;;;;;6.00;5.60;;;17.10;99.90;;;;;;5048810;28;20235;-70
2021/08/12 04:40:31;;;;;;;6.07;5.57;;;17.10;99.90;;;;;;5048996;28;20204;-70
2021/08/12 04:42:58;;;;;;;5.93;5.43;;;17.10;99.90;;;;;;5049360;28;20240;-70
2021/08/12 04:45:27;;;;;;;6.30;5.90;;;17.00;99.90;;;;;;5048765;28;20285;-70
2021/08/12 04:47:58;;;;;;;5.90;5.40;;;17.00;99.90;;;;;;5048983;28;20201;-70
2021/08/12 04:50:25;;;;;;;6.43;5.70;;;17.00;99.90;;;;;;5048909;28;20200;-70
2021/08/12 04:52:52;;;;;;;5.97;5.57;;;17.00;99.90;;;;;;5048727;28;20208;-70
2021/08/12 04:55:18;;;;;;;6.40;5.80;;;17.10;99.90;;;;;;5048470;28;20808;-70
2021/08/12 04:57:45;;;;;;;6.40;5.80;;;17.10;99.90;;;;;;5049010;28;20289;-70
2021/08/12 05:00:12;;;;;;;6.00;5.60;;;17.10;99.90;;;;;;5048357;28;20236;-70
2021/08/12 05:02:40;;;;;;;6.63;6.13;;;17.20;99.90;;;;;;5048739;28;20220;-70
2021/08/12 05:05:08;;;;;;;6.73;5.83;;;17.20;99.90;;;;;;5048572;28;20273;-70
2021/08/12 05:07:34;;;;;;;6.17;5.60;;;17.30;99.90;;;;;;5048596;28;20239;-70
2021/08/12 05:10:01;;;;;;;6.67;6.10;;;17.30;99.90;;;;;;5048792;28;20244;-70
2021/08/12 05:12:27;;;;;;;6.63;6.13;;;17.30;99.90;;;;;;5048563;28;20200;-70
2021/08/12 05:14:54;;;;;;;6.80;6.30;;;17.40;99.90;;;;;;5048529;28;20232;-71
2021/08/12 05:17:21;;;;;;;6.63;6.03;;;17.40;99.90;;;;;;5048351;28;20240;-70
2021/08/12 05:19:49;;;;;;;6.17;5.57;;;17.40;99.90;;;;;;5048447;28;20239;-70
2021/08/12 05:22:19;;;;;;;6.63;6.10;;;17.40;99.90;;;;;;5048248;28;20246;-71
2021/08/12 05:24:46;;;;;;;6.53;6.00;;;17.50;99.90;;;;;;5048243;28;20238;-70
2021/08/12 05:27:12;;;;;;;6.57;6.10;;;17.50;99.90;;;;;;5048131;28;20658;-71
2021/08/12 05:29:39;;;;;;;6.90;6.40;;;17.60;99.90;;;;;;5048292;28;20247;-71
2021/08/12 05:32:06;;;;;;;6.07;5.63;;;17.60;99.90;;;;;;5048242;28;20246;-70
2021/08/12 05:34:33;;;;;;;6.60;6.10;;;17.70;99.90;;;;;;5048100;28;20211;-70
2021/08/12 05:37:01;;;;;;;6.30;5.70;;;17.70;99.90;;;;;;5048234;28;20216;-70
2021/08/12 05:39:27;;;;;;;6.30;5.70;;;17.80;99.90;;;;;;5047852;28;20667;-70
2021/08/12 05:41:54;;;;;;;6.00;5.50;;;17.80;99.90;;;;;;5047965;28;20263;-70
2021/08/12 05:44:21;;;;;;;5.93;5.53;;;17.90;99.90;;;;;;5047757;28;20686;-70
2021/08/12 05:46:48;;;;;;;5.33;5.03;;;18.00;99.90;;;;;;5047660;28;20706;-70
2021/08/12 05:49:14;;;;;;;5.73;5.27;;;18.00;99.90;;;;;;5048124;28;20200;-70
2021/08/12 05:51:41;;;;;;;5.50;5.20;;;18.00;99.90;;;;;;5047963;28;20265;-71
2021/08/12 05:54:09;;;;;;;6.20;5.77;;;18.10;99.90;;;;;;5047733;28;20811;-71
2021/08/12 05:56:35;;;;;;;5.83;5.43;;;18.10;99.90;;;;;;5047982;28;20208;-71
2021/08/12 05:59:02;;;;;;;6.13;5.63;;;18.10;99.90;;;;;;5051826;28;20236;-71
2021/08/12 06:01:29;;;;;;;6.77;5.47;;;18.20;99.90;;;;;;5052146;28;20261;-71
2021/08/12 06:03:56;;;;;;;5.43;4.90;;;18.20;99.90;;;;;;5051995;28;20250;-71
2021/08/12 06:06:22;;;;;;;5.67;5.17;;;18.20;99.90;;;;;;5052028;28;20243;-71
2021/08/12 06:08:49;;;;;;;5.63;5.23;;;18.30;99.90;;;;;;5051883;28;20273;-71
2021/08/12 06:11:17;;;;;;;5.40;5.00;;;18.30;99.90;;;;;;5051818;28;20265;-71
2021/08/12 06:13:43;;;;;;;6.07;5.67;;;18.30;99.90;;;;;;5051577;28;20247;-71
2021/08/12 06:16:11;;;;;;;5.30;5.00;;;18.40;99.90;;;;;;5051535;28;20252;-71
2021/08/12 06:18:37;;;;;;;5.63;5.13;;;18.40;99.90;;;;;;5051550;28;20227;-71
2021/08/12 06:21:04;;;;;;;5.50;5.03;;;18.40;99.90;;;;;;5051435;28;20246;-71
2021/08/12 06:23:31;;;;;;;5.37;4.97;;;18.40;99.90;;;;;;5051445;28;20200;-71
2021/08/12 06:25:58;;;;;;;5.70;5.30;;;18.40;99.90;;;;;;5051558;28;20236;-71
2021/08/12 06:28:26;;;;;;;5.30;4.90;;;18.50;99.90;;;;;;5051387;28;20216;-71
2021/08/12 06:30:53;;;;;;;7.73;7.17;;;18.50;99.90;;;;;;5051447;28;20208;-71
2021/08/12 06:33:20;;;;;;;9.30;5.80;;;18.50;99.90;;;;;;5051474;28;20208;-71
2021/08/12 06:35:46;;;;;;;5.93;5.40;;;18.50;99.90;;;;;;5051177;28;20709;-71
2021/08/12 06:38:13;;;;;;;5.40;5.00;;;18.60;99.90;;;;;;5051150;28;20627;-71
2021/08/12 06:40:39;;;;;;;5.37;4.97;;;18.60;99.90;;;;;;5050970;28;20573;-71
2021/08/12 06:43:06;;;;;;;5.30;5.00;;;18.60;99.90;;;;;;5051245;28;20235;-71
2021/08/12 06:45:34;;;;;;;4.90;4.60;;;18.60;99.90;;;;;;5051112;28;20690;-71
2021/08/12 06:48:04;;;;;;;4.77;4.37;;;18.70;99.90;;;;;;5051010;28;20204;-71
2021/08/12 06:50:31;;;;;;;5.73;5.17;;;18.70;99.90;;;;;;5050990;28;20208;-70
2021/08/12 06:52:58;;;;;;;5.20;4.77;;;18.70;99.90;;;;;;5051020;28;20302;-71
2021/08/12 06:55:24;;;;;;;5.03;4.73;;;18.80;99.90;;;;;;5051062;28;20257;-71
2021/08/12 06:57:51;;;;;;;4.70;4.30;;;18.80;99.90;;;;;;5050970;28;20208;-71
2021/08/12 07:00:18;;;;;;;5.00;4.60;;;18.80;99.90;;;;;;5050348;28;20750;-71
2021/08/12 07:02:46;;;;;;;4.50;4.20;;;18.80;99.90;;;;;;5051006;28;20247;-71
2021/08/12 07:05:13;;;;;;;4.93;4.53;;;18.80;99.90;;;;;;5050802;28;20204;-71
2021/08/12 07:07:40;;;;;;;5.60;4.13;;;18.90;99.90;;;;;;5050652;28;20278;-71
2021/08/12 07:10:07;;;;;;;4.80;4.40;;;18.90;99.90;;;;;;5049262;28;20824;-71
2021/08/12 07:12:33;;;;;;;4.40;4.10;;;18.90;99.90;;;;;;5050487;28;20269;-71
2021/08/12 07:15:00;;;;;;;4.57;4.27;;;19.00;99.90;;;;;;5050589;28;20236;-71
2021/08/12 07:17:28;;;;;;;4.20;3.90;;;19.00;99.90;;;;;;5050424;28;20270;-71
2021/08/12 07:19:56;;;;;;;4.13;3.93;;;19.10;99.90;;;;;;5050497;28;20208;-71
2021/08/12 07:22:23;;;;;;;4.73;3.50;;;19.10;99.90;;;;;;5050627;28;20285;-71
2021/08/12 07:24:50;;;;;;;5.83;3.30;;;19.10;99.90;;;;;;5050183;28;20730;-71
2021/08/12 07:27:16;;;;;;;3.83;3.53;;;19.10;99.90;;;;;;5050435;28;20269;-71
2021/08/12 07:29:43;;;;;;;4.03;3.83;;;19.10;99.90;;;;;;5050239;28;20192;-71
2021/08/12 07:32:10;;;;;;;4.53;3.87;;;19.20;99.90;;;;;;5050462;28;20609;-71
2021/08/12 07:34:37;;;;;;;4.20;3.90;;;19.20;99.90;;;;;;5050032;28;20653;-71
2021/08/12 07:37:05;;;;;;;4.00;3.70;;;19.20;99.90;;;;;;5050090;28;20307;-71
2021/08/12 07:39:32;;;;;;;4.47;4.07;;;19.20;99.90;;;;;;5050076;28;20651;-71
2021/08/12 07:41:59;;;;;;;4.27;3.87;;;19.30;99.90;;;;;;5050360;28;20254;-71
2021/08/12 07:44:25;;;;;;;4.30;3.73;;;19.40;99.90;;;;;;5049796;28;20670;-71
2021/08/12 07:46:52;;;;;;;3.80;3.60;;;19.40;99.90;;;;;;5050076;28;20277;-71
2021/08/12 07:49:18;;;;;;;3.73;3.50;;;19.40;99.90;;;;;;5049972;28;20212;-71
2021/08/12 07:51:45;;;;;;;3.93;3.67;;;19.50;99.90;;;;;;5049848;28;20293;-71
2021/08/12 07:54:13;;;;;;;4.97;4.03;;;19.50;99.90;;;;;;5049912;28;20286;-71
2021/08/12 07:56:40;;;;;;;4.00;3.60;;;19.60;99.90;;;;;;5049281;28;20541;-71
2021/08/12 07:59:06;;;;;;;3.90;3.60;;;19.60;99.90;;;;;;5049597;28;20742;-71
2021/08/12 08:01:33;;;;;;;3.97;3.67;;;19.70;99.90;;;;;;5049732;28;20250;-71
2021/08/12 08:04:01;;;;;;;3.67;3.37;;;19.70;99.90;;;;;;5049772;28;20242;-71
2021/08/12 08:06:28;;;;;;;3.33;3.13;;;19.70;99.90;;;;;;5049216;28;20754;-71
2021/08/12 08:08:55;;;;;;;2.57;2.47;;;19.80;99.90;;;;;;5049590;28;20212;-71
2021/08/12 08:11:23;;;;;;;2.43;2.33;;;19.80;99.90;;;;;;5049609;28;20258;-71
2021/08/12 08:13:50;;;;;;;3.57;3.37;;;19.90;99.90;;;;;;5049197;28;20708;-71
2021/08/12 08:16:21;;;;;;;3.03;2.83;;;19.90;99.90;;;;;;5049081;28;20239;-71
2021/08/12 08:18:48;;;;;;;2.67;2.47;;;19.90;99.90;;;;;;5049063;28;20236;-71
2021/08/12 08:21:16;;;;;;;2.50;2.40;;;20.00;99.90;;;;;;5048789;28;20281;-71
2021/08/12 08:23:43;;;;;;;2.53;2.10;;;20.00;99.90;;;;;;5048491;28;20642;-71
2021/08/12 08:26:10;;;;;;;2.60;2.40;;;20.10;99.90;;;;;;5048648;28;20690;-71
2021/08/12 08:28:38;;;;;;;2.77;2.57;;;20.10;99.90;;;;;;5048438;28;20211;-71
2021/08/12 08:31:04;;;;;;;2.93;2.43;;;20.20;99.90;;;;;;5048822;28;20548;-71
2021/08/12 08:33:35;;;;;;;3.93;2.30;;;20.20;99.90;;;;;;5048995;28;20199;-71
2021/08/12 08:36:02;;;;;;;2.40;2.30;;;20.30;99.90;;;;;;5048707;28;20203;-71
2021/08/12 08:38:29;;;;;;;3.27;2.87;;;20.40;99.90;;;;;;5048853;28;20262;-71
2021/08/12 08:40:55;;;;;;;3.10;2.90;;;20.40;99.90;;;;;;5048832;28;20212;-71
2021/08/12 08:43:23;;;;;;;2.83;2.60;;;20.50;99.90;;;;;;5048618;28;20585;-71
2021/08/12 08:45:51;;;;;;;2.50;2.40;;;20.50;99.90;;;;;;5048550;28;20637;-71
2021/08/12 08:48:19;;;;;;;2.73;2.53;;;20.60;99.90;;;;;;5048768;28;20239;-71
2021/08/12 08:50:47;;;;;;;2.80;2.60;;;20.60;99.90;;;;;;5048521;28;20299;-71
2021/08/12 08:53:16;;;;;;;3.27;3.07;;;20.60;99.90;;;;;;5048477;28;20228;-71
2021/08/12 08:55:43;;;;;;;2.90;2.63;;;20.70;99.90;;;;;;5047963;28;20208;-71
2021/08/12 08:58:10;;;;;;;2.87;2.67;;;20.70;99.90;;;;;;5047965;28;20728;-71
2021/08/12 09:00:37;;;;;;;2.80;2.60;;;20.80;99.90;;;;;;5048332;28;20531;-69
2021/08/12 09:03:05;;;;;;;2.70;2.50;;;20.80;99.90;;;;;;5048440;28;20204;-69
2021/08/12 09:05:32;;;;;;;2.53;2.40;;;20.90;99.90;;;;;;5048292;28;20208;-69
2021/08/12 09:08:00;;;;;;;3.47;3.20;;;20.90;99.90;;;;;;5048300;28;20232;-69
2021/08/12 09:10:27;;;;;;;3.00;2.80;;;21.10;99.90;;;;;;5048478;28;20208;-69
2021/08/12 09:12:53;;;;;;;3.08;2.88;;;21.20;99.90;;;;;;5048138;28;20236;-69
2021/08/12 09:15:21;;;;;;;2.63;2.53;;;21.20;99.90;;;;;;5048320;28;20235;-69
2021/08/12 09:17:49;;;;;;;2.47;2.38;;;21.40;99.90;;;;;;5048086;28;20227;-69
2021/08/12 09:20:19;;;;;;;2.42;2.33;;;21.40;99.90;;;;;;5048296;28;20240;-69
2021/08/12 09:22:50;;;;;;;3.10;2.90;;;21.50;99.90;;;;;;5047999;28;20215;-69
2021/08/12 09:25:26;;;;;;;2.55;2.38;;;21.50;99.90;;;;;;5048195;28;20283;-70
2021/08/12 09:28:11;;;;;;;2.60;2.50;;;21.50;99.90;;;;;;5047946;28;20259;-69
2021/08/12 09:30:38;;;;;;;2.78;2.58;;;21.60;99.90;;;;;;5047905;28;20246;-70
2021/08/12 09:33:05;;;;;;;2.40;2.30;;;21.70;99.90;;;;;;5047321;28;20240;-70
2021/08/12 09:35:33;;;;;;;2.38;2.28;;;21.70;99.90;;;;;;5047781;28;20240;-70
2021/08/12 09:38:08;;;;;;;2.90;2.70;;;21.70;99.90;;;;;;5047798;28;20732;-71
2021/08/12 09:40:35;;;;;;;2.92;2.20;;;21.80;99.90;;;;;;5047845;28;20199;-71
2021/08/12 09:43:03;;;;;;;2.65;2.45;;;21.70;99.90;;;;;;5048146;28;20208;-70
2021/08/12 09:45:32;;;;;;;2.72;2.53;;;21.70;99.90;;;;;;5048239;28;20204;-70
2021/08/12 09:48:11;;;;;;;3.05;2.85;;;21.90;99.90;;;;;;5048195;28;20289;-70
2021/08/12 09:50:39;;;;;;;2.80;2.60;;;22.10;99.90;;;;;;5047976;28;20200;-70
2021/08/12 09:53:07;;;;;;;3.10;2.90;;;22.20;99.90;;;;;;5047681;28;20220;-70
2021/08/12 09:55:38;;;;;;;5.43;2.50;;;22.20;99.90;;;;;;5047661;28;20212;-70
2021/08/12 09:58:09;;;;;;;2.50;2.40;;;22.20;99.90;;;;;;5047766;28;20199;-70
2021/08/12 10:00:39;;;;;;;2.42;2.33;;;22.30;99.90;;;;;;5047655;28;20231;-70
2021/08/12 10:03:21;;;;;;;2.63;2.42;;;22.40;99.90;;;;;;5047871;28;20638;-70
2021/08/12 10:05:49;;;;;;;2.70;2.50;;;22.40;99.90;;;;;;5047730;28;20654;-70
2021/08/12 10:08:30;;;;;;;3.28;2.47;;;22.40;99.90;;;;;;5048027;28;20298;-70
2021/08/12 10:10:58;;;;;;;2.60;2.40;;;22.50;99.90;;;;;;5047763;28;20200;-70
2021/08/12 10:13:25;;;;;;;3.03;2.50;;;22.60;99.90;;;;;;5047877;28;20274;-70
2021/08/12 10:15:52;;;;;;;2.80;2.60;;;22.70;99.90;;;;;;5047564;28;20362;-70
2021/08/12 10:18:20;;;;;;;2.95;2.75;;;22.70;99.90;;;;;;5047804;28;20256;-70
2021/08/12 10:20:49;;;;;;;2.40;2.20;;;22.80;99.90;;;;;;5047129;28;20844;-70
2021/08/12 10:23:18;;;;;;;2.80;2.70;;;23.10;99.90;;;;;;5047388;28;20231;-70
2021/08/12 10:25:51;;;;;;;2.25;2.15;;;23.10;99.90;;;;;;5047607;28;20294;-70
2021/08/12 10:28:21;;;;;;;2.40;2.22;;;23.20;99.90;;;;;;5047778;28;20309;-70
2021/08/12 10:30:47;;;;;;;2.40;2.20;;;23.20;99.90;;;;;;5047274;28;20212;-70
2021/08/12 10:33:14;;;;;;;2.90;2.70;;;23.40;99.90;;;;;;5047610;28;20209;-71
2021/08/12 10:35:41;;;;;;;2.30;2.20;;;23.60;99.90;;;;;;5047220;28;20670;-71
2021/08/12 10:38:09;;;;;;;2.65;2.35;;;23.60;99.90;;;;;;5047260;28;20639;-70
2021/08/12 10:40:40;;;;;;;3.83;2.45;;;23.60;99.90;;;;;;5047441;28;20232;-70
2021/08/12 10:43:09;;;;;;;2.58;2.20;;;23.60;99.90;;;;;;5048305;28;20262;-71
2021/08/12 10:45:36;;;;;;;2.80;2.28;;;23.60;99.90;;;;;;5050810;28;20212;-70
2021/08/12 10:48:03;;;;;;;2.78;2.10;;;23.60;99.90;;;;;;5050696;28;20696;-70
2021/08/12 10:50:35;;;;;;;1.95;1.85;;;23.80;99.90;;;;;;5051006;28;20293;-70
2021/08/12 10:53:19;;;;;;;2.03;1.85;;;23.80;99.90;;;;;;5050792;28;20238;-70
2021/08/12 10:56:14;;;;;;;3.75;3.55;;;23.90;99.00;;;;;;5051106;28;20255;-70
2021/08/12 10:58:48;;;;;;;3.53;2.90;;;24.10;99.30;;;;;;5050234;28;20785;-71
2021/08/12 11:01:30;;;;;;;2.50;2.40;;;24.20;99.80;;;;;;5051009;28;20199;-71
2021/08/12 11:04:01;;;;;;;2.97;2.70;;;24.30;99.90;;;;;;5048052;28;20203;-71
2021/08/12 11:06:40;;;;;;;2.50;2.30;;;24.40;99.90;;;;;;5050609;28;20200;-70
2021/08/12 11:09:09;;;;;;;2.88;2.10;;;24.50;99.70;;;;;;5050250;28;20666;-71
2021/08/12 11:11:58;;;;;;;2.50;2.40;;;24.60;99.70;;;;;;5050576;28;20261;-71
2021/08/12 11:14:49;;;;;;;2.30;2.20;;;24.70;99.70;;;;;;5050172;28;20220;-70
2021/08/12 11:17:17;;;;;;;2.30;2.20;;;24.80;98.90;;;;;;5050203;28;20235;-71
2021/08/12 11:19:44;;;;;;;2.60;2.40;;;24.90;98.90;;;;;;5050300;28;20212;-71
2021/08/12 11:22:33;;;;;;;3.33;2.50;;;24.90;99.10;;;;;;5050441;28;20278;-71
2021/08/12 11:25:02;;;;;;;2.67;2.58;;;25.10;99.30;;;;;;5050255;28;20200;-71
2021/08/12 11:27:44;;;;;;;2.53;2.10;;;25.20;98.30;;;;;;5050211;28;20228;-71
2021/08/12 11:30:47;;;;;;;2.50;2.40;;;25.40;98.00;;;;;;5050491;28;20208;-71
2021/08/12 11:33:44;;;;;;;2.50;2.35;;;25.50;98.40;;;;;;5050195;28;20218;-71
2021/08/12 11:36:17;;;;;;;2.17;2.08;;;25.60;97.60;;;;;;5049973;28;20192;-71
2021/08/12 11:38:47;;;;;;;2.33;2.13;;;25.80;97.70;;;;;;5049760;28;20231;-71
2021/08/12 11:41:16;;;;;;;2.25;2.05;;;25.80;97.40;;;;;;5050138;28;20205;-71
2021/08/12 11:43:43;;;;;;;2.20;2.10;;;25.90;97.70;;;;;;5049908;28;20204;-71
2021/08/12 11:46:12;;;;;;;2.15;2.05;;;26.00;96.80;;;;;;5049834;28;20602;-71
2021/08/12 11:48:39;;;;;;;2.75;2.30;;;26.00;96.00;;;;;;5049159;28;20240;-71
2021/08/12 11:51:06;;;;;;;2.45;2.25;;;26.20;96.20;;;;;;5049811;28;20215;-71
2021/08/12 11:53:44;;;;;;;2.30;2.20;;;26.30;95.50;;;;;;5049453;28;20298;-71
2021/08/12 11:56:22;;;;;;;2.17;2.08;;;26.30;95.50;;;;;;5048660;28;20606;-71
2021/08/12 11:58:49;;;;;;;3.10;2.13;;;26.40;94.70;;;;;;5049263;28;20236;-72
2021/08/12 12:01:18;;;;;;;3.72;2.45;;;26.60;95.10;;;;;;5049629;28;20243;-71
2021/08/12 12:03:48;;;;;;;2.50;2.30;;;26.70;95.40;;;;;;5049508;28;20208;-71
2021/08/12 12:06:30;;;;;;;2.38;2.28;;;26.80;95.00;;;;;;5049596;28;20254;-71
2021/08/12 12:08:57;;;;;;;1.95;1.85;;;26.80;94.60;;;;;;5049351;28;20230;-71
2021/08/12 12:11:25;;;;;;;2.13;2.03;;;26.90;95.00;;;;;;5049472;28;20236;-71
2021/08/12 12:13:52;;;;;;;2.20;2.10;;;27.10;94.50;;;;;;5049151;28;20228;-71
2021/08/12 12:16:20;;;;;;;2.25;2.15;;;27.10;94.00;;;;;;5049067;28;20208;-71
2021/08/12 12:18:46;;;;;;;2.35;2.00;;;27.20;94.20;;;;;;5049106;28;20212;-71
2021/08/12 12:21:14;;;;;;;2.40;2.30;;;27.30;94.30;;;;;;5049174;28;20680;-71
2021/08/12 12:23:43;;;;;;;2.42;2.22;;;27.40;94.10;;;;;;5049077;28;20204;-71
2021/08/12 12:26:19;;;;;;;5.20;2.40;;;27.50;93.10;;;;;;5049131;28;20255;-71
2021/08/12 12:28:49;;;;;;;2.45;2.10;;;27.60;93.60;;;;;;5048988;28;20221;-72
2021/08/12 12:31:17;;;;;;;2.67;2.45;;;27.70;92.80;;;;;;5048845;28;20378;-71
2021/08/12 12:33:45;;;;;;;4.85;2.30;;;27.80;93.30;;;;;;5049146;28;20261;-72
2021/08/12 12:36:13;;;;;;;2.72;2.53;;;27.80;92.90;;;;;;5048901;28;20205;-71
2021/08/12 12:38:40;;;;;;;2.33;2.22;;;27.90;92.80;;;;;;5048920;28;20270;-71
2021/08/12 12:41:09;;;;;;;2.42;2.20;;;28.00;92.80;;;;;;5048973;28;20201;-71
2021/08/12 12:43:36;;;;;;;2.60;2.50;;;28.10;93.10;;;;;;5048606;28;20666;-71
2021/08/12 12:46:04;;;;;;;2.88;2.67;;;28.00;92.30;;;;;;5048655;28;20208;-71
2021/08/12 12:48:33;;;;;;;2.30;2.20;;;28.00;91.30;;;;;;5048790;28;20259;-71
2021/08/12 12:51:01;;;;;;;2.50;2.40;;;27.80;91.10;;;;;;5048505;28;20635;-71
2021/08/12 12:53:30;;;;;;;2.63;2.35;;;27.70;91.60;;;;;;5048255;28;20228;-71
2021/08/12 12:55:58;;;;;;;2.78;2.58;;;27.70;92.30;;;;;;5048653;28;20265;-72